• Join FlightAware (Why Join?)
  • Login
  • US Flag 
10:25AM EDT


 

Airport Tracker/Info


-or-


 

Live Flight TrackerFlight Track Log ✈ SWA4488 ✈ 27-Dec-2012 ✈ KLAX - KDEN

Flight Track Log - Related Links

Times and Time Zones

All times are in EST time to prevent confusion due to time zone crossing. See the SWA4488 flight status page for this flight to view local times or setup timezone preferences in your user account.

Time Position Orientation Groundspeed Altitude Reporting Facility
EST Latitude Longitude Course Direction KTS MPH feet Rate Location/Type
09:43PM 33.9500 -118.4667 262° West 181 208 1,500  Level Southern California TRACON
09:45PM 33.9422 -118.5347 262° West 216 249 4,800 3,360 Climbing Los Angeles Center
09:46PM 33.8869 -118.5331 179° South 245 282 8,700 3,360 Climbing Los Angeles Center
09:47PM 33.9044 -118.4575 74° East 254 292 11,700 2,340 Climbing Los Angeles Center
09:48PM 33.9533 -118.3714 56° Northeast 324 373 13,500 2,580 Climbing Los Angeles Center
09:49PM 34.0081 -118.2747 56° Northeast 344 396 17,000 3,000 Climbing Los Angeles Center
09:50PM 34.0667 -118.1717 56° Northeast 368 423 19,700 2,700 Climbing Los Angeles Center
09:51PM 34.1281 -118.0650 55° Northeast 384 442 22,600 2,760 Climbing Los Angeles Center
09:52PM 34.1897 -117.9572 55° Northeast 389 448 25,400 2,280 Climbing Los Angeles Center
09:53PM 34.2528 -117.8475 55° Northeast 395 455 27,300 1,740 Climbing Los Angeles Center
09:54PM 34.3189 -117.7300 56° Northeast 417 480 29,000 1,620 Climbing Los Angeles Center
09:55PM 34.3917 -117.6019 55° Northeast 433 498 30,700 1,560 Climbing Los Angeles Center
09:56PM 34.4614 -117.4758 56° Northeast 450 518 32,200 1,920 Climbing Los Angeles Center
09:57PM 34.5447 -117.3272 56° Northeast 448 516 34,700 1,560 Climbing Los Angeles Center
09:58PM 34.6136 -117.2056 55° Northeast 444 511 35,500 720 Climbing Los Angeles Center
09:59PM 34.6839 -117.0806 56° Northeast 450 518 36,200 780 Climbing Los Angeles Center
10:00PM 34.7567 -116.9494 56° Northeast 469 540 37,100 1,140 Climbing Los Angeles Center
10:01PM 34.8439 -116.8378 46° Northeast 457 526 38,600 840 Climbing Los Angeles Center
10:02PM 34.9300 -116.7242 47° Northeast 457 526 38,900 180 Climbing Los Angeles Center
10:03PM 35.0183 -116.6078 47° Northeast 465 535 39,000  Climbing Los Angeles Center
10:04PM 35.1231 -116.4647 48° Northeast 471 542 39,000  Level Los Angeles Center
10:05PM 35.2128 -116.3464 47° Northeast 474 545 39,000  Level Los Angeles Center
10:06PM 35.3008 -116.2267 48° Northeast 476 548 39,000  Level Los Angeles Center
10:07PM 35.3858 -116.1086 49° Northeast 466 536 39,000  Level Los Angeles Center
10:08PM 35.4717 -115.9911 48° Northeast 465 535 39,000  Level Los Angeles Center
10:09PM 35.5728 -115.8586 47° Northeast 465 535 39,000  Level Los Angeles Center
10:10PM 35.6439 -115.7250 57° Northeast 472 543 39,000  Level Los Angeles Center
10:11PM 35.7017 -115.5772 64° Northeast 481 554 39,000  Level Los Angeles Center
10:12PM 35.7586 -115.4311 64° Northeast 479 551 39,000  Level Los Angeles Center
10:13PM 35.8150 -115.2861 64° Northeast 476 548 39,000  Level Los Angeles Center
10:14PM 35.8672 -115.1431 66° East 465 535 39,000  Level Los Angeles Center
10:15PM 35.9344 -114.9722 64° Northeast 465 535 39,000  Level Los Angeles Center
10:16PM 35.9900 -114.8236 65° Northeast 475 547 39,000  Level Los Angeles Center
10:17PM 36.0453 -114.6783 65° Northeast 473 544 39,000  Level Los Angeles Center
10:18PM 36.1006 -114.5333 65° Northeast 470 541 39,000  Level Los Angeles Center
10:19PM 36.1561 -114.3872 65° Northeast 470 541 39,000  Level Los Angeles Center
10:20PM 36.2111 -114.2411 65° Northeast 470 541 39,000  Level Los Angeles Center
10:21PM 36.2664 -114.0931 65° Northeast 472 543 39,000  Level Los Angeles Center
10:22PM 36.3325 -113.9142 65° Northeast 475 547 39,000  Level Los Angeles Center
10:23PM 36.3875 -113.7642 65° Northeast 477 549 39,000  Level Los Angeles Center
10:25PM 36.4431 -113.6122 66° East 479 551 39,000  Level Los Angeles Center
10:26PM 36.5000 -113.4622 65° Northeast 480 552 39,000  Level Los Angeles Center
10:27PM 36.5561 -113.3131 65° Northeast 480 552 39,000  Level Los Angeles Center
10:28PM 36.6108 -113.1628 66° East 480 552 39,000  Level Los Angeles Center
10:29PM 36.6656 -113.0094 66° East 483 556 39,000  Level Los Angeles Center
10:30PM 36.7306 -112.8278 66° East 482 555 39,000  Level Los Angeles Center
10:31PM 36.7850 -112.6778 66° East 480 552 39,000  Level Los Angeles Center
10:32PM 36.8383 -112.5294 66° East 476 548 39,000  Level Los Angeles Center
10:33PM 36.8900 -112.3806 67° East 473 544 39,000  Level Los Angeles Center
10:34PM 36.9422 -112.2328 66° East 470 541 39,000  Level Los Angeles Center
10:35PM 36.9950 -112.0853 66° East 469 540 39,000  Level Los Angeles Center
10:35PM 37.0264 -111.9947 67° East 470 541 39,000  Level Denver Center
10:36PM 37.0894 -111.8144 66° East 472 543 39,000  Level Denver Center
10:37PM 37.1417 -111.6636 66° East 473 544 39,000  Level Denver Center
10:38PM 37.1933 -111.5119 67° East 475 547 39,000  Level Denver Center
10:39PM 37.2453 -111.3589 67° East 478 550 39,000  Level Denver Center
10:41PM 37.2981 -111.2044 67° East 482 555 39,000  Level Denver Center
10:42PM 37.3500 -111.0503 67° East 482 555 39,000  Level Denver Center
10:43PM 37.4019 -110.8950 67° East 483 556 39,000  Level Denver Center
10:44PM 37.4647 -110.7114 67° East 479 551 39,000  Level Denver Center
10:45PM 37.4997 -110.5489 75° East 487 560 39,000  Level Denver Center
10:46PM 37.4878 -110.3889 95° East 487 560 39,000  Level Denver Center
10:47PM 37.4244 -110.2322 117° Southeast 490 564 39,000  Level Denver Center
10:48PM 37.3583 -110.0775 118° Southeast 488 562 39,000  Level Denver Center
10:49PM 37.3081 -109.9017 110° East 492 566 39,000  Level Denver Center
10:50PM 37.3647 -109.7569 64° Northeast 491 565 39,000  Level Denver Center
10:51PM 37.4619 -109.6569 39° Northeast 476 548 39,000  Level Denver Center
10:52PM 37.5758 -109.5442 38° Northeast 466 536 39,000  Level Denver Center
10:53PM 37.6811 -109.4703 29° Northeast 455 524 39,000  Level Denver Center
10:54PM 37.8044 -109.3825 29° Northeast 455 524 39,000  Level Denver Center
10:55PM 37.8819 -109.2647 50° Northeast 476 548 39,000  Level Denver Center
10:56PM 37.9408 -109.0972 66° East 468 539 39,000  Level Denver Center
10:57PM 37.9908 -108.9539 66° East 467 537 39,000  Level Denver Center
10:58PM 38.0567 -108.7631 66° East 464 534 39,000  Level Denver Center
10:59PM 38.1044 -108.6219 67° East 466 536 39,000  Level Denver Center
11:00PM 38.1619 -108.4556 66° East 464 534 39,000  Level Denver Center
11:01PM 38.2103 -108.3119 67° East 462 532 39,000  Level Denver Center
11:02PM 38.2667 -108.1458 67° East 460 529 39,000  Level Denver Center
11:03PM 38.3153 -108.0039 66° East 460 529 39,000  Level Denver Center
11:04PM 38.3717 -107.8361 67° East 461 531 39,000  Level Denver Center
11:05PM 38.4197 -107.6900 67° East 465 535 39,000  Level Denver Center
11:06PM 38.4753 -107.5450 64° Northeast 472 543 39,000 -540 Level Denver Center
11:07PM 38.5467 -107.3819 61° Northeast 467 537 37,900 -1,020 Descending Denver Center
11:08PM 38.6119 -107.2392 60° Northeast 481 554 37,000 -960 Descending Denver Center
11:10PM 38.6839 -107.0753 61° Northeast 477 549 36,000 -900 Descending Denver Center
11:11PM 38.7447 -106.9381 60° Northeast 470 541 35,200 -780 Descending Denver Center
11:12PM 38.8164 -106.7783 60° Northeast 465 535 34,400 -900 Descending Denver Center
11:13PM 38.8761 -106.6425 61° Northeast 460 529 33,400 -900 Descending Denver Center
11:14PM 38.9333 -106.5169 60° Northeast 435 501 32,400 -1,020 Descending Denver Center
11:15PM 39.0100 -106.3531 59° Northeast 420 483 31,100 -1,200 Descending Denver Center
11:16PM 39.0725 -106.2139 60° Northeast 404 465 30,000 -1,080 Descending Denver Center
11:17PM 39.1203 -106.1081 60° Northeast 386 444 29,000 -1,500 Descending Denver Center
11:18PM 39.1722 -105.9875 61° Northeast 383 441 27,000 -2,100 Descending Denver Center
11:19PM 39.2244 -105.8689 60° Northeast 379 436 24,800 -2,400 Descending Denver Center
11:20PM 39.2875 -105.7256 60° Northeast 386 444 22,200 -2,100 Descending Denver Center
11:21PM 39.3372 -105.6108 61° Northeast 368 423 20,500 -1,500 Descending Denver Center
11:22PM 39.3858 -105.5006 60° Northeast 351 404 19,100 -1,380 Descending Denver Center
11:23PM 39.3997 -105.3844 81° East 324 373 17,700 -1,440 Descending Denver Center
11:24PM 39.4042 -105.2697 87° East 323 372 16,200 -1,560 Descending Denver Center
11:25PM 39.4103 -105.1469 86° East 320 368 14,600 -1,380 Descending Denver Center
11:26PM 39.4153 -105.0325 87° East 320 368 13,400 -840 Descending Denver Center
11:27PM 39.4206 -104.9297 86° East 289 333 13,000 -840 Descending Denver Center
11:28PM 39.4297 -104.8269 83° East 269 310 11,700 -1,020 Descending Denver Center
11:29PM 39.4453 -104.7333 78° East 271 312 11,000 -360 Descending Denver Center
11:30PM 39.4925 -104.6803 41° Northeast 243 280 11,000 -300 Level Denver Center
11:31PM 39.5581 -104.6650 10° North 218 251 10,500 -660 Descending Denver Center
11:32PM 39.6119 -104.6631 North 195 224 9,700 -780 Descending Denver Center
11:33PM 39.6667 -104.6619 North 197 227 9,000 -1,020 Descending Denver Center
11:34PM 39.7239 -104.6619 360° North 192 221 7,700 -1,200 Descending Denver Center
11:35PM 39.7728 -104.6614 North 177 204 6,600 -1,020 Descending Denver Center
11:36PM 39.8150 -104.6611 360° North 157 181 5,700 -600 Descending Denver Center
11:37PM 39.8494 -104.6617 359° North 124 143 5,400 -300 Descending Denver Center
11:39PM 39.8500 -104.6667 North  Level FlightAware Approximate
11:46PM 39.8617 -104.6732 North  Level Estimated
11:47PM 39.8617 -104.6732 North  Level Estimated
11:48PM 39.8617 -104.6732 North  Level Estimated